Riverton, Louisiana
Current Conditions -  °F | °C
As of 10:53 PM on Friday 28 Nov 2014 (Local Time) from KMLU Reporting Station
Clear Clear  
Wind Chill: 47°   Ceiling: Unl
Heat Index: 49°   Visibility: 10mi
Dew Point: 41°   Wind: 6mph
Humidity: 74%   Direction: 180°S
Pressure: 30.16"   Gusts: NA
Location:  32.1631°N, 92.1971°W
Report Text: KMLU 290453Z AUTO 18005KT 10SM CLR 09/05 A3016 RMK AO2 SLP211 T00940050
Loading
Personal Weather Stations






























Interactive Weather Map New forecast layout! Learn more

10-Day Weather Forecast

Advertisements
Track Severe Weather on mobile